sensor_id;sensor_type;location;lat;lon;timestamp;temperature;humidity
23371;DHT22;11858;51.056;3.712;2022-11-11T00:00:33;11.50;99.90
23371;DHT22;11858;51.056;3.712;2022-11-11T00:02:59;11.50;99.90
23371;DHT22;11858;51.056;3.712;2022-11-11T00:05:26;11.50;99.90
23371;DHT22;11858;51.056;3.712;2022-11-11T00:07:52;11.60;99.90
23371;DHT22;11858;51.056;3.712;2022-11-11T00:10:19;11.50;99.90
23371;DHT22;11858;51.056;3.712;2022-11-11T00:12:44;11.60;99.90
23371;DHT22;11858;51.056;3.712;2022-11-11T00:15:10;11.50;99.90
23371;DHT22;11858;51.056;3.712;2022-11-11T00:17:36;11.40;99.90
23371;DHT22;11858;51.056;3.712;2022-11-11T00:20:20;11.40;99.90
23371;DHT22;11858;51.056;3.712;2022-11-11T00:23:07;11.30;99.90
23371;DHT22;11858;51.056;3.712;2022-11-11T00:25:58;11.40;99.90
23371;DHT22;11858;51.056;3.712;2022-11-11T00:28:25;11.40;99.90
23371;DHT22;11858;51.056;3.712;2022-11-11T00:30:50;11.40;99.90
23371;DHT22;11858;51.056;3.712;2022-11-11T00:33:16;11.50;99.90
23371;DHT22;11858;51.056;3.712;2022-11-11T00:35:41;11.40;99.90
23371;DHT22;11858;51.056;3.712;2022-11-11T00:38:19;11.50;99.90
23371;DHT22;11858;51.056;3.712;2022-11-11T00:41:04;11.50;99.90
23371;DHT22;11858;51.056;3.712;2022-11-11T00:43:29;11.50;99.90
23371;DHT22;11858;51.056;3.712;2022-11-11T00:45:55;11.50;99.90
23371;DHT22;11858;51.056;3.712;2022-11-11T00:48:41;11.50;99.90
23371;DHT22;11858;51.056;3.712;2022-11-11T00:51:25;11.40;99.90
23371;DHT22;11858;51.056;3.712;2022-11-11T00:53:51;11.40;99.90
23371;DHT22;11858;51.056;3.712;2022-11-11T00:56:17;11.40;99.90
23371;DHT22;11858;51.056;3.712;2022-11-11T00:58:43;11.30;99.90
23371;DHT22;11858;51.056;3.712;2022-11-11T01:01:09;11.30;99.90
23371;DHT22;11858;51.056;3.712;2022-11-11T01:03:35;11.30;99.90
23371;DHT22;11858;51.056;3.712;2022-11-11T01:06:02;11.30;99.90
23371;DHT22;11858;51.056;3.712;2022-11-11T01:08:29;11.40;99.90
23371;DHT22;11858;51.056;3.712;2022-11-11T01:10:55;11.40;99.90
23371;DHT22;11858;51.056;3.712;2022-11-11T01:13:23;11.40;99.90
23371;DHT22;11858;51.056;3.712;2022-11-11T01:15:51;11.30;99.90
23371;DHT22;11858;51.056;3.712;2022-11-11T01:18:20;11.30;99.90
23371;DHT22;11858;51.056;3.712;2022-11-11T01:20:46;11.30;99.90
23371;DHT22;11858;51.056;3.712;2022-11-11T01:23:13;11.30;99.90
23371;DHT22;11858;51.056;3.712;2022-11-11T01:25:40;11.30;99.90
23371;DHT22;11858;51.056;3.712;2022-11-11T01:28:07;11.40;99.90
23371;DHT22;11858;51.056;3.712;2022-11-11T01:30:34;11.30;99.90
23371;DHT22;11858;51.056;3.712;2022-11-11T01:33:01;11.40;99.90
23371;DHT22;11858;51.056;3.712;2022-11-11T01:35:27;11.50;99.90
23371;DHT22;11858;51.056;3.712;2022-11-11T01:37:52;11.40;99.90
23371;DHT22;11858;51.056;3.712;2022-11-11T01:40:19;11.40;99.90
23371;DHT22;11858;51.056;3.712;2022-11-11T01:45:51;11.40;99.90
23371;DHT22;11858;51.056;3.712;2022-11-11T01:48:25;11.30;99.90
23371;DHT22;11858;51.056;3.712;2022-11-11T01:51:18;11.40;99.90
23371;DHT22;11858;51.056;3.712;2022-11-11T01:53:53;11.30;99.90
23371;DHT22;11858;51.056;3.712;2022-11-11T01:56:21;11.30;99.90
23371;DHT22;11858;51.056;3.712;2022-11-11T01:58:47;11.40;99.90
23371;DHT22;11858;51.056;3.712;2022-11-11T02:01:13;11.30;99.90
23371;DHT22;11858;51.056;3.712;2022-11-11T02:03:41;11.30;99.90
23371;DHT22;11858;51.056;3.712;2022-11-11T02:06:27;11.30;99.90
23371;DHT22;11858;51.056;3.712;2022-11-11T02:08:53;11.30;99.90
23371;DHT22;11858;51.056;3.712;2022-11-11T02:11:21;11.20;99.90
23371;DHT22;11858;51.056;3.712;2022-11-11T02:14:07;11.20;99.90
23371;DHT22;11858;51.056;3.712;2022-11-11T02:16:51;11.10;99.90
23371;DHT22;11858;51.056;3.712;2022-11-11T02:19:20;11.10;99.90
23371;DHT22;11858;51.056;3.712;2022-11-11T02:21:53;11.10;99.90
23371;DHT22;11858;51.056;3.712;2022-11-11T02:24:21;11.10;99.90
23371;DHT22;11858;51.056;3.712;2022-11-11T02:26:48;11.10;99.90
23371;DHT22;11858;51.056;3.712;2022-11-11T02:29:16;11.10;99.90
23371;DHT22;11858;51.056;3.712;2022-11-11T02:31:43;11.00;99.90
23371;DHT22;11858;51.056;3.712;2022-11-11T02:34:08;11.00;99.90
23371;DHT22;11858;51.056;3.712;2022-11-11T02:36:34;10.90;99.90
23371;DHT22;11858;51.056;3.712;2022-11-11T02:39:00;10.90;99.90
23371;DHT22;11858;51.056;3.712;2022-11-11T02:41:26;11.00;99.90
23371;DHT22;11858;51.056;3.712;2022-11-11T02:44:10;10.90;99.90
23371;DHT22;11858;51.056;3.712;2022-11-11T02:46:36;10.90;99.90
23371;DHT22;11858;51.056;3.712;2022-11-11T02:49:02;10.90;99.90
23371;DHT22;11858;51.056;3.712;2022-11-11T02:51:27;10.90;99.90
23371;DHT22;11858;51.056;3.712;2022-11-11T02:53:53;10.90;99.90
23371;DHT22;11858;51.056;3.712;2022-11-11T02:56:26;10.80;99.90
23371;DHT22;11858;51.056;3.712;2022-11-11T02:59:10;10.80;99.90
23371;DHT22;11858;51.056;3.712;2022-11-11T03:01:36;10.80;99.90
23371;DHT22;11858;51.056;3.712;2022-11-11T03:04:01;10.80;99.90
23371;DHT22;11858;51.056;3.712;2022-11-11T03:06:27;10.80;99.90
23371;DHT22;11858;51.056;3.712;2022-11-11T03:08:53;10.80;99.90
23371;DHT22;11858;51.056;3.712;2022-11-11T03:11:18;10.80;99.90
23371;DHT22;11858;51.056;3.712;2022-11-11T03:13:53;10.80;99.90
23371;DHT22;11858;51.056;3.712;2022-11-11T03:16:19;10.80;99.90
23371;DHT22;11858;51.056;3.712;2022-11-11T03:19:03;10.80;99.90
23371;DHT22;11858;51.056;3.712;2022-11-11T03:21:29;10.80;99.90
23371;DHT22;11858;51.056;3.712;2022-11-11T03:23:54;10.80;99.90
23371;DHT22;11858;51.056;3.712;2022-11-11T03:26:20;10.80;99.90
23371;DHT22;11858;51.056;3.712;2022-11-11T03:28:46;10.90;99.90
23371;DHT22;11858;51.056;3.712;2022-11-11T03:31:11;10.80;99.90
23371;DHT22;11858;51.056;3.712;2022-11-11T03:33:37;10.70;99.90
23371;DHT22;11858;51.056;3.712;2022-11-11T03:36:03;10.70;99.90
23371;DHT22;11858;51.056;3.712;2022-11-11T03:38:29;10.70;99.90
23371;DHT22;11858;51.056;3.712;2022-11-11T03:40:56;10.60;99.90
23371;DHT22;11858;51.056;3.712;2022-11-11T03:43:24;10.70;99.90
23371;DHT22;11858;51.056;3.712;2022-11-11T03:45:52;10.80;99.90
23371;DHT22;11858;51.056;3.712;2022-11-11T03:48:17;10.70;99.90
23371;DHT22;11858;51.056;3.712;2022-11-11T03:50:43;10.60;99.90
23371;DHT22;11858;51.056;3.712;2022-11-11T03:53:11;10.60;99.90
23371;DHT22;11858;51.056;3.712;2022-11-11T03:55:38;10.70;99.90
23371;DHT22;11858;51.056;3.712;2022-11-11T03:58:03;10.70;99.90
23371;DHT22;11858;51.056;3.712;2022-11-11T04:00:29;10.60;99.90
23371;DHT22;11858;51.056;3.712;2022-11-11T04:03:21;10.70;99.90
23371;DHT22;11858;51.056;3.712;2022-11-11T04:06:08;10.70;99.90
23371;DHT22;11858;51.056;3.712;2022-11-11T04:08:52;10.60;99.90
23371;DHT22;11858;51.056;3.712;2022-11-11T04:11:42;10.50;99.90
23371;DHT22;11858;51.056;3.712;2022-11-11T04:14:11;10.50;99.90
23371;DHT22;11858;51.056;3.712;2022-11-11T04:16:56;10.40;99.90
23371;DHT22;11858;51.056;3.712;2022-11-11T04:19:22;10.40;99.90
23371;DHT22;11858;51.056;3.712;2022-11-11T04:22:06;10.40;99.90
23371;DHT22;11858;51.056;3.712;2022-11-11T04:24:31;10.40;99.90
23371;DHT22;11858;51.056;3.712;2022-11-11T04:27:17;10.40;99.90
23371;DHT22;11858;51.056;3.712;2022-11-11T04:29:43;10.40;99.90
23371;DHT22;11858;51.056;3.712;2022-11-11T04:32:14;10.50;99.90
23371;DHT22;11858;51.056;3.712;2022-11-11T04:35:04;10.60;99.90
23371;DHT22;11858;51.056;3.712;2022-11-11T04:37:33;10.50;99.90
23371;DHT22;11858;51.056;3.712;2022-11-11T04:39:59;10.50;99.90
23371;DHT22;11858;51.056;3.712;2022-11-11T04:42:43;10.60;99.90
23371;DHT22;11858;51.056;3.712;2022-11-11T04:45:11;10.50;99.90
23371;DHT22;11858;51.056;3.712;2022-11-11T04:48:09;10.50;99.90
23371;DHT22;11858;51.056;3.712;2022-11-11T04:50:39;10.50;99.90
23371;DHT22;11858;51.056;3.712;2022-11-11T04:53:07;10.50;99.90
23371;DHT22;11858;51.056;3.712;2022-11-11T04:55:34;10.40;99.90
23371;DHT22;11858;51.056;3.712;2022-11-11T04:58:21;10.40;99.90
23371;DHT22;11858;51.056;3.712;2022-11-11T05:00:47;10.30;99.90
23371;DHT22;11858;51.056;3.712;2022-11-11T05:03:16;10.40;99.90
23371;DHT22;11858;51.056;3.712;2022-11-11T05:05:53;10.30;99.90
23371;DHT22;11858;51.056;3.712;2022-11-11T05:08:40;10.30;99.90
23371;DHT22;11858;51.056;3.712;2022-11-11T05:11:29;10.30;99.90
23371;DHT22;11858;51.056;3.712;2022-11-11T05:14:03;10.30;99.90
23371;DHT22;11858;51.056;3.712;2022-11-11T05:16:56;10.50;99.90
23371;DHT22;11858;51.056;3.712;2022-11-11T05:19:41;10.40;99.90
23371;DHT22;11858;51.056;3.712;2022-11-11T05:22:37;10.30;99.90
23371;DHT22;11858;51.056;3.712;2022-11-11T05:25:04;10.20;99.90
23371;DHT22;11858;51.056;3.712;2022-11-11T05:27:49;10.30;99.90
23371;DHT22;11858;51.056;3.712;2022-11-11T05:30:16;10.30;99.90
23371;DHT22;11858;51.056;3.712;2022-11-11T05:32:42;10.30;99.90
23371;DHT22;11858;51.056;3.712;2022-11-11T05:35:08;10.20;99.90
23371;DHT22;11858;51.056;3.712;2022-11-11T05:37:35;10.30;99.90
23371;DHT22;11858;51.056;3.712;2022-11-11T05:40:00;10.20;99.90
23371;DHT22;11858;51.056;3.712;2022-11-11T05:42:26;10.10;99.90
23371;DHT22;11858;51.056;3.712;2022-11-11T05:44:52;10.10;99.90
23371;DHT22;11858;51.056;3.712;2022-11-11T05:47:17;10.10;99.90
23371;DHT22;11858;51.056;3.712;2022-11-11T05:49:43;10.10;99.90
23371;DHT22;11858;51.056;3.712;2022-11-11T05:52:14;10.10;99.90
23371;DHT22;11858;51.056;3.712;2022-11-11T05:54:43;10.10;99.90
23371;DHT22;11858;51.056;3.712;2022-11-11T05:57:09;10.10;99.90
23371;DHT22;11858;51.056;3.712;2022-11-11T05:59:35;10.10;99.90
23371;DHT22;11858;51.056;3.712;2022-11-11T06:02:00;10.20;99.90
23371;DHT22;11858;51.056;3.712;2022-11-11T06:04:26;10.20;99.90
23371;DHT22;11858;51.056;3.712;2022-11-11T06:06:53;10.20;99.90
23371;DHT22;11858;51.056;3.712;2022-11-11T06:09:19;10.10;99.90
23371;DHT22;11858;51.056;3.712;2022-11-11T06:11:44;10.00;99.90
23371;DHT22;11858;51.056;3.712;2022-11-11T06:14:10;10.00;99.90
23371;DHT22;11858;51.056;3.712;2022-11-11T06:16:36;10.00;99.90
23371;DHT22;11858;51.056;3.712;2022-11-11T06:19:02;10.00;99.90
23371;DHT22;11858;51.056;3.712;2022-11-11T06:21:31;10.00;99.90
23371;DHT22;11858;51.056;3.712;2022-11-11T06:24:17;10.10;99.90
23371;DHT22;11858;51.056;3.712;2022-11-11T06:26:43;10.20;99.90
23371;DHT22;11858;51.056;3.712;2022-11-11T06:29:08;10.00;99.90
23371;DHT22;11858;51.056;3.712;2022-11-11T06:31:34;10.10;99.90
23371;DHT22;11858;51.056;3.712;2022-11-11T06:34:00;10.10;99.90
23371;DHT22;11858;51.056;3.712;2022-11-11T06:36:25;10.00;99.90
23371;DHT22;11858;51.056;3.712;2022-11-11T06:38:51;10.10;99.90
23371;DHT22;11858;51.056;3.712;2022-11-11T06:41:16;10.10;99.90
23371;DHT22;11858;51.056;3.712;2022-11-11T06:43:43;10.10;99.90
23371;DHT22;11858;51.056;3.712;2022-11-11T06:46:23;10.00;99.90
23371;DHT22;11858;51.056;3.712;2022-11-11T06:48:49;10.10;99.90
23371;DHT22;11858;51.056;3.712;2022-11-11T06:51:15;10.00;99.90
23371;DHT22;11858;51.056;3.712;2022-11-11T06:53:41;10.20;99.90
23371;DHT22;11858;51.056;3.712;2022-11-11T06:56:07;10.10;99.90
23371;DHT22;11858;51.056;3.712;2022-11-11T06:58:34;10.20;99.90
23371;DHT22;11858;51.056;3.712;2022-11-11T07:01:04;10.20;99.90
23371;DHT22;11858;51.056;3.712;2022-11-11T07:03:30;10.20;99.90
23371;DHT22;11858;51.056;3.712;2022-11-11T07:06:03;10.10;99.90
23371;DHT22;11858;51.056;3.712;2022-11-11T07:08:29;10.10;99.90
23371;DHT22;11858;51.056;3.712;2022-11-11T07:10:55;10.20;99.90
23371;DHT22;11858;51.056;3.712;2022-11-11T07:13:21;10.20;99.90
23371;DHT22;11858;51.056;3.712;2022-11-11T07:15:47;10.30;99.90
23371;DHT22;11858;51.056;3.712;2022-11-11T07:18:12;10.20;99.90
23371;DHT22;11858;51.056;3.712;2022-11-11T07:20:38;10.30;99.90
23371;DHT22;11858;51.056;3.712;2022-11-11T07:23:04;10.20;99.90
23371;DHT22;11858;51.056;3.712;2022-11-11T07:25:30;10.20;99.90
23371;DHT22;11858;51.056;3.712;2022-11-11T07:27:56;10.30;99.90
23371;DHT22;11858;51.056;3.712;2022-11-11T07:30:22;10.30;99.90
23371;DHT22;11858;51.056;3.712;2022-11-11T07:32:50;10.30;99.90
23371;DHT22;11858;51.056;3.712;2022-11-11T07:35:17;10.30;99.90
23371;DHT22;11858;51.056;3.712;2022-11-11T07:37:43;10.30;99.90
23371;DHT22;11858;51.056;3.712;2022-11-11T07:40:12;10.20;99.90
23371;DHT22;11858;51.056;3.712;2022-11-11T07:42:38;10.20;99.90
23371;DHT22;11858;51.056;3.712;2022-11-11T07:45:06;10.30;99.90
23371;DHT22;11858;51.056;3.712;2022-11-11T07:47:32;10.20;99.90
23371;DHT22;11858;51.056;3.712;2022-11-11T07:50:00;10.20;99.90
23371;DHT22;11858;51.056;3.712;2022-11-11T07:52:25;10.20;99.90
23371;DHT22;11858;51.056;3.712;2022-11-11T07:54:51;10.10;99.90
23371;DHT22;11858;51.056;3.712;2022-11-11T07:57:17;10.10;99.90
23371;DHT22;11858;51.056;3.712;2022-11-11T07:59:42;10.00;99.90
23371;DHT22;11858;51.056;3.712;2022-11-11T08:02:11;10.10;99.90
23371;DHT22;11858;51.056;3.712;2022-11-11T08:04:37;10.20;99.90
23371;DHT22;11858;51.056;3.712;2022-11-11T08:07:03;10.20;99.90
23371;DHT22;11858;51.056;3.712;2022-11-11T08:09:29;10.20;99.90
23371;DHT22;11858;51.056;3.712;2022-11-11T08:11:55;10.20;99.90
23371;DHT22;11858;51.056;3.712;2022-11-11T08:14:39;10.20;99.90
23371;DHT22;11858;51.056;3.712;2022-11-11T08:17:04;10.00;99.90
23371;DHT22;11858;51.056;3.712;2022-11-11T08:19:30;10.00;99.90
23371;DHT22;11858;51.056;3.712;2022-11-11T08:21:56;10.10;99.90
23371;DHT22;11858;51.056;3.712;2022-11-11T08:24:22;10.10;99.90
23371;DHT22;11858;51.056;3.712;2022-11-11T08:26:48;10.10;99.90
23371;DHT22;11858;51.056;3.712;2022-11-11T08:29:14;10.10;99.90
23371;DHT22;11858;51.056;3.712;2022-11-11T08:31:39;10.20;99.90
23371;DHT22;11858;51.056;3.712;2022-11-11T08:34:05;10.30;99.90
23371;DHT22;11858;51.056;3.712;2022-11-11T08:36:31;10.30;99.90
23371;DHT22;11858;51.056;3.712;2022-11-11T08:38:56;10.30;99.90
23371;DHT22;11858;51.056;3.712;2022-11-11T08:41:22;10.30;99.90
23371;DHT22;11858;51.056;3.712;2022-11-11T08:43:54;10.20;99.90
23371;DHT22;11858;51.056;3.712;2022-11-11T08:46:21;10.20;99.90
23371;DHT22;11858;51.056;3.712;2022-11-11T08:48:47;10.20;99.90
23371;DHT22;11858;51.056;3.712;2022-11-11T08:51:13;10.10;99.90
23371;DHT22;11858;51.056;3.712;2022-11-11T08:53:39;10.10;99.90
23371;DHT22;11858;51.056;3.712;2022-11-11T08:56:05;10.10;99.90
23371;DHT22;11858;51.056;3.712;2022-11-11T08:58:31;10.10;99.90
23371;DHT22;11858;51.056;3.712;2022-11-11T09:00:57;10.20;99.90
23371;DHT22;11858;51.056;3.712;2022-11-11T09:03:23;10.40;99.90
23371;DHT22;11858;51.056;3.712;2022-11-11T09:05:49;10.50;99.90
23371;DHT22;11858;51.056;3.712;2022-11-11T09:08:15;10.60;99.90
23371;DHT22;11858;51.056;3.712;2022-11-11T09:10:41;10.60;99.90
23371;DHT22;11858;51.056;3.712;2022-11-11T09:13:07;10.70;99.90
23371;DHT22;11858;51.056;3.712;2022-11-11T09:15:33;10.50;99.90
23371;DHT22;11858;51.056;3.712;2022-11-11T09:17:59;10.60;99.90
23371;DHT22;11858;51.056;3.712;2022-11-11T09:20:25;10.90;99.90
23371;DHT22;11858;51.056;3.712;2022-11-11T09:22:50;10.90;99.90
23371;DHT22;11858;51.056;3.712;2022-11-11T09:25:17;11.00;99.90
23371;DHT22;11858;51.056;3.712;2022-11-11T09:27:43;10.90;99.90
23371;DHT22;11858;51.056;3.712;2022-11-11T09:30:10;11.00;99.90
23371;DHT22;11858;51.056;3.712;2022-11-11T09:32:36;11.00;99.90
23371;DHT22;11858;51.056;3.712;2022-11-11T09:35:02;11.00;99.90
23371;DHT22;11858;51.056;3.712;2022-11-11T09:37:28;11.00;99.90
23371;DHT22;11858;51.056;3.712;2022-11-11T09:39:54;11.00;99.90
23371;DHT22;11858;51.056;3.712;2022-11-11T09:42:38;11.10;99.90
23371;DHT22;11858;51.056;3.712;2022-11-11T09:45:25;11.30;99.90
23371;DHT22;11858;51.056;3.712;2022-11-11T09:50:33;12.00;99.90
23371;DHT22;11858;51.056;3.712;2022-11-11T09:53:00;13.00;99.90
23371;DHT22;11858;51.056;3.712;2022-11-11T09:55:41;14.00;99.90
23371;DHT22;11858;51.056;3.712;2022-11-11T09:58:31;15.20;99.90
23371;DHT22;11858;51.056;3.712;2022-11-11T10:03:37;15.50;99.90
23371;DHT22;11858;51.056;3.712;2022-11-11T10:06:23;15.20;99.90
23371;DHT22;11858;51.056;3.712;2022-11-11T10:08:59;15.10;99.90
23371;DHT22;11858;51.056;3.712;2022-11-11T10:14:32;14.60;99.90
23371;DHT22;11858;51.056;3.712;2022-11-11T10:17:09;14.00;99.90
23371;DHT22;11858;51.056;3.712;2022-11-11T10:19:43;14.00;99.90
23371;DHT22;11858;51.056;3.712;2022-11-11T10:22:30;14.30;99.90
23371;DHT22;11858;51.056;3.712;2022-11-11T10:25:26;14.70;99.90
23371;DHT22;11858;51.056;3.712;2022-11-11T10:27:55;15.00;99.90
23371;DHT22;11858;51.056;3.712;2022-11-11T10:30:27;15.40;99.90
23371;DHT22;11858;51.056;3.712;2022-11-11T10:32:58;16.60;99.90
23371;DHT22;11858;51.056;3.712;2022-11-11T10:35:26;16.90;99.90
23371;DHT22;11858;51.056;3.712;2022-11-11T10:38:22;16.90;99.90
23371;DHT22;11858;51.056;3.712;2022-11-11T10:40:56;16.80;99.90
23371;DHT22;11858;51.056;3.712;2022-11-11T10:43:28;17.30;99.90
23371;DHT22;11858;51.056;3.712;2022-11-11T10:46:08;17.70;99.90
23371;DHT22;11858;51.056;3.712;2022-11-11T10:48:53;18.10;99.90
23371;DHT22;11858;51.056;3.712;2022-11-11T10:51:21;18.70;99.90
23371;DHT22;11858;51.056;3.712;2022-11-11T10:53:58;18.30;99.90
23371;DHT22;11858;51.056;3.712;2022-11-11T10:59:20;19.00;99.90
23371;DHT22;11858;51.056;3.712;2022-11-11T11:02:16;17.90;99.90
23371;DHT22;11858;51.056;3.712;2022-11-11T11:04:51;17.50;99.90
23371;DHT22;11858;51.056;3.712;2022-11-11T11:07:25;17.90;99.90
23371;DHT22;11858;51.056;3.712;2022-11-11T11:10:02;17.80;99.90
23371;DHT22;11858;51.056;3.712;2022-11-11T11:15:20;18.80;99.90
23371;DHT22;11858;51.056;3.712;2022-11-11T11:18:06;19.80;99.90
23371;DHT22;11858;51.056;3.712;2022-11-11T11:20:33;19.70;99.90
23371;DHT22;11858;51.056;3.712;2022-11-11T11:22:58;19.70;99.90
23371;DHT22;11858;51.056;3.712;2022-11-11T11:25:27;18.70;99.90
23371;DHT22;11858;51.056;3.712;2022-11-11T11:28:10;18.70;99.90
23371;DHT22;11858;51.056;3.712;2022-11-11T11:30:36;18.30;99.90
23371;DHT22;11858;51.056;3.712;2022-11-11T11:33:04;18.00;99.90
23371;DHT22;11858;51.056;3.712;2022-11-11T11:35:43;18.20;99.90
23371;DHT22;11858;51.056;3.712;2022-11-11T11:38:11;18.50;99.90
23371;DHT22;11858;51.056;3.712;2022-11-11T11:41:03;18.50;99.90
23371;DHT22;11858;51.056;3.712;2022-11-11T11:43:37;18.50;99.90
23371;DHT22;11858;51.056;3.712;2022-11-11T11:46:27;18.50;99.90
23371;DHT22;11858;51.056;3.712;2022-11-11T11:57:45;19.50;99.90
23371;DHT22;11858;51.056;3.712;2022-11-11T12:00:17;20.00;99.90
23371;DHT22;11858;51.056;3.712;2022-11-11T12:05:59;20.10;99.90
23371;DHT22;11858;51.056;3.712;2022-11-11T12:09:16;19.10;99.90
23371;DHT22;11858;51.056;3.712;2022-11-11T12:11:52;18.60;99.90
23371;DHT22;11858;51.056;3.712;2022-11-11T12:14:32;18.50;99.90
23371;DHT22;11858;51.056;3.712;2022-11-11T12:17:10;18.60;99.90
23371;DHT22;11858;51.056;3.712;2022-11-11T12:19:43;19.80;99.90
23371;DHT22;11858;51.056;3.712;2022-11-11T12:24:53;20.40;99.90
23371;DHT22;11858;51.056;3.712;2022-11-11T12:27:37;19.70;99.90
23371;DHT22;11858;51.056;3.712;2022-11-11T12:30:37;19.10;99.90
23371;DHT22;11858;51.056;3.712;2022-11-11T12:46:38;19.80;99.90
23371;DHT22;11858;51.056;3.712;2022-11-11T13:00:18;18.90;99.90
23371;DHT22;11858;51.056;3.712;2022-11-11T13:03:13;19.10;99.90
23371;DHT22;11858;51.056;3.712;2022-11-11T13:06:03;19.50;99.90
23371;DHT22;11858;51.056;3.712;2022-11-11T13:08:56;19.40;99.90
23371;DHT22;11858;51.056;3.712;2022-11-11T13:14:30;19.30;99.90
23371;DHT22;11858;51.056;3.712;2022-11-11T13:16:59;19.50;99.90
23371;DHT22;11858;51.056;3.712;2022-11-11T13:19:42;19.80;99.90
23371;DHT22;11858;51.056;3.712;2022-11-11T13:22:22;19.40;99.90
23371;DHT22;11858;51.056;3.712;2022-11-11T13:24:50;18.80;99.90
23371;DHT22;11858;51.056;3.712;2022-11-11T13:27:23;18.70;99.90
23371;DHT22;11858;51.056;3.712;2022-11-11T13:30:02;18.40;99.90
23371;DHT22;11858;51.056;3.712;2022-11-11T13:37:58;18.20;99.90
23371;DHT22;11858;51.056;3.712;2022-11-11T13:40:34;17.80;99.90
23371;DHT22;11858;51.056;3.712;2022-11-11T13:43:01;17.70;99.90
23371;DHT22;11858;51.056;3.712;2022-11-11T13:45:36;17.90;99.90
23371;DHT22;11858;51.056;3.712;2022-11-11T13:48:04;17.80;99.90
23371;DHT22;11858;51.056;3.712;2022-11-11T13:50:34;17.70;99.90
23371;DHT22;11858;51.056;3.712;2022-11-11T13:53:06;17.80;99.90
23371;DHT22;11858;51.056;3.712;2022-11-11T13:55:44;17.50;99.90
23371;DHT22;11858;51.056;3.712;2022-11-11T13:58:31;17.30;99.90
23371;DHT22;11858;51.056;3.712;2022-11-11T14:01:05;17.10;99.90
23371;DHT22;11858;51.056;3.712;2022-11-11T14:03:56;17.10;99.90
23371;DHT22;11858;51.056;3.712;2022-11-11T14:08:53;17.40;99.90
23371;DHT22;11858;51.056;3.712;2022-11-11T14:13:54;17.00;99.90
23371;DHT22;11858;51.056;3.712;2022-11-11T14:24:43;16.60;99.90
23371;DHT22;11858;51.056;3.712;2022-11-11T14:27:16;16.50;99.90
23371;DHT22;11858;51.056;3.712;2022-11-11T14:29:49;16.40;99.90
23371;DHT22;11858;51.056;3.712;2022-11-11T14:32:36;16.10;99.90
23371;DHT22;11858;51.056;3.712;2022-11-11T14:35:19;16.10;99.90
23371;DHT22;11858;51.056;3.712;2022-11-11T14:40:29;15.70;99.90
23371;DHT22;11858;51.056;3.712;2022-11-11T14:42:57;15.50;99.90
23371;DHT22;11858;51.056;3.712;2022-11-11T14:47:51;15.40;99.90
23371;DHT22;11858;51.056;3.712;2022-11-11T14:53:09;15.20;99.90
23371;DHT22;11858;51.056;3.712;2022-11-11T14:55:39;15.10;99.90
23371;DHT22;11858;51.056;3.712;2022-11-11T15:01:13;15.10;99.90
23371;DHT22;11858;51.056;3.712;2022-11-11T15:03:51;15.10;99.90
23371;DHT22;11858;51.056;3.712;2022-11-11T15:12:18;14.70;99.90
23371;DHT22;11858;51.056;3.712;2022-11-11T15:15:07;14.50;99.90
23371;DHT22;11858;51.056;3.712;2022-11-11T15:17:51;14.30;99.90
23371;DHT22;11858;51.056;3.712;2022-11-11T15:23:41;14.30;99.90
23371;DHT22;11858;51.056;3.712;2022-11-11T15:26:35;14.20;99.90
23371;DHT22;11858;51.056;3.712;2022-11-11T15:29:20;14.10;99.90
23371;DHT22;11858;51.056;3.712;2022-11-11T15:32:02;14.10;99.90
23371;DHT22;11858;51.056;3.712;2022-11-11T15:34:34;13.90;99.90
23371;DHT22;11858;51.056;3.712;2022-11-11T15:37:14;13.80;99.90
23371;DHT22;11858;51.056;3.712;2022-11-11T15:39:45;13.70;99.90
23371;DHT22;11858;51.056;3.712;2022-11-11T15:42:34;13.70;99.90
23371;DHT22;11858;51.056;3.712;2022-11-11T15:45:38;13.70;99.90
23371;DHT22;11858;51.056;3.712;2022-11-11T15:47:57;13.60;99.90
23371;DHT22;11858;51.056;3.712;2022-11-11T15:52:54;13.40;99.90
23371;DHT22;11858;51.056;3.712;2022-11-11T15:55:25;13.30;99.90
23371;DHT22;11858;51.056;3.712;2022-11-11T15:57:50;13.20;99.90
23371;DHT22;11858;51.056;3.712;2022-11-11T16:02:48;13.00;99.90
23371;DHT22;11858;51.056;3.712;2022-11-11T16:05:21;12.90;99.90
23371;DHT22;11858;51.056;3.712;2022-11-11T16:07:48;12.90;99.90
23371;DHT22;11858;51.056;3.712;2022-11-11T16:10:28;12.80;99.90
23371;DHT22;11858;51.056;3.712;2022-11-11T16:13:10;12.80;99.90
23371;DHT22;11858;51.056;3.712;2022-11-11T16:15:45;12.90;99.90
23371;DHT22;11858;51.056;3.712;2022-11-11T16:18:45;12.90;99.90
23371;DHT22;11858;51.056;3.712;2022-11-11T16:21:20;12.80;99.90
23371;DHT22;11858;51.056;3.712;2022-11-11T16:23:47;12.70;99.90
23371;DHT22;11858;51.056;3.712;2022-11-11T16:26:14;12.70;99.90
23371;DHT22;11858;51.056;3.712;2022-11-11T16:29:02;12.80;99.90
23371;DHT22;11858;51.056;3.712;2022-11-11T16:37:08;12.40;99.90
23371;DHT22;11858;51.056;3.712;2022-11-11T16:39:34;12.40;99.90
23371;DHT22;11858;51.056;3.712;2022-11-11T16:42:05;12.30;99.90
23371;DHT22;11858;51.056;3.712;2022-11-11T16:44:47;12.20;99.90
23371;DHT22;11858;51.056;3.712;2022-11-11T16:50:02;11.90;99.90
23371;DHT22;11858;51.056;3.712;2022-11-11T16:52:30;11.90;99.90
23371;DHT22;11858;51.056;3.712;2022-11-11T16:55:03;11.90;99.90
23371;DHT22;11858;51.056;3.712;2022-11-11T16:57:31;11.80;99.90
23371;DHT22;11858;51.056;3.712;2022-11-11T17:00:03;11.70;99.90
23371;DHT22;11858;51.056;3.712;2022-11-11T17:02:29;11.70;99.90
23371;DHT22;11858;51.056;3.712;2022-11-11T17:04:57;11.60;99.90
23371;DHT22;11858;51.056;3.712;2022-11-11T17:07:32;11.60;99.90
23371;DHT22;11858;51.056;3.712;2022-11-11T17:10:20;11.50;99.90
23371;DHT22;11858;51.056;3.712;2022-11-11T17:12:47;11.40;99.90
23371;DHT22;11858;51.056;3.712;2022-11-11T17:15:17;11.30;99.90
23371;DHT22;11858;51.056;3.712;2022-11-11T17:17:44;11.30;99.90
23371;DHT22;11858;51.056;3.712;2022-11-11T17:20:19;11.30;99.90
23371;DHT22;11858;51.056;3.712;2022-11-11T17:22:50;11.20;99.90
23371;DHT22;11858;51.056;3.712;2022-11-11T17:25:17;11.10;99.90
23371;DHT22;11858;51.056;3.712;2022-11-11T17:27:42;11.20;99.90
23371;DHT22;11858;51.056;3.712;2022-11-11T17:30:12;11.10;99.90
23371;DHT22;11858;51.056;3.712;2022-11-11T17:32:38;11.20;99.90
23371;DHT22;11858;51.056;3.712;2022-11-11T17:35:05;11.30;99.90
23371;DHT22;11858;51.056;3.712;2022-11-11T17:37:37;11.30;99.90
23371;DHT22;11858;51.056;3.712;2022-11-11T17:40:05;11.30;99.90
23371;DHT22;11858;51.056;3.712;2022-11-11T17:42:31;11.30;99.90
23371;DHT22;11858;51.056;3.712;2022-11-11T17:44:57;11.30;99.90
23371;DHT22;11858;51.056;3.712;2022-11-11T17:47:22;11.30;99.90
23371;DHT22;11858;51.056;3.712;2022-11-11T17:49:48;11.30;99.90